createdAt,value
2016-07-13T00:00:15.253Z,0
2016-07-13T00:01:15.941Z,0
2016-07-13T00:02:15.948Z,0
2016-07-13T00:03:15.916Z,0
2016-07-13T00:04:15.907Z,0
2016-07-13T00:05:15.867Z,0
2016-07-13T00:06:15.202Z,0
2016-07-13T00:07:13.779Z,0
2016-07-13T00:08:15.895Z,0
2016-07-13T00:09:15.119Z,0
2016-07-13T00:10:15.823Z,0
2016-07-13T00:11:15.808Z,0
2016-07-13T00:12:15.817Z,0
2016-07-13T00:13:15.080Z,0
2016-07-13T00:14:15.769Z,0
2016-07-13T00:15:15.031Z,0
2016-07-13T00:16:15.021Z,0
2016-07-13T00:17:15.018Z,0
2016-07-13T00:18:15.740Z,0
2016-07-13T00:19:14.983Z,0
2016-07-13T00:20:15.687Z,0
2016-07-13T00:21:14.945Z,0
2016-07-13T00:22:15.655Z,0
2016-07-13T00:23:15.635Z,0
2016-07-13T00:24:15.635Z,0
2016-07-13T00:25:15.619Z,0
2016-07-13T00:26:14.886Z,0
2016-07-13T00:27:15.603Z,0
2016-07-13T00:28:14.856Z,0
2016-07-13T00:29:15.557Z,0
2016-07-13T00:30:14.833Z,0
2016-07-13T00:31:15.544Z,0
2016-07-13T00:32:14.808Z,0
2016-07-13T00:33:15.492Z,0
2016-07-13T00:34:15.558Z,0
2016-07-13T00:35:14.765Z,0
2016-07-13T00:36:15.477Z,0
2016-07-13T00:37:14.745Z,0
2016-07-13T00:38:15.447Z,0
2016-07-13T00:39:14.719Z,0
2016-07-13T00:40:15.487Z,0
2016-07-13T00:41:14.700Z,0
2016-07-13T00:42:15.448Z,0
2016-07-13T00:43:15.383Z,0
2016-07-13T00:44:14.720Z,0
2016-07-13T00:45:14.620Z,0
2016-07-13T00:46:15.486Z,0
2016-07-13T00:47:15.313Z,0
2016-07-13T00:48:14.609Z,0
2016-07-13T00:49:14.589Z,0
2016-07-13T00:50:15.294Z,0
2016-07-13T00:51:15.257Z,0
2016-07-13T00:52:14.551Z,0
2016-07-13T00:53:14.580Z,0
2016-07-13T00:54:15.314Z,0
2016-07-13T00:55:15.220Z,0
2016-07-13T00:56:13.857Z,0
2016-07-13T00:57:15.172Z,0
2016-07-13T00:58:15.175Z,0
2016-07-13T00:59:15.157Z,0
2016-07-13T01:00:14.429Z,0
2016-07-13T01:01:15.135Z,0
2016-07-13T01:02:14.409Z,0
2016-07-13T01:03:15.110Z,0
2016-07-13T01:04:15.100Z,0
2016-07-13T01:05:15.077Z,0
2016-07-13T01:06:14.358Z,0
2016-07-13T01:07:15.051Z,0
2016-07-13T01:08:15.032Z,0
2016-07-13T01:09:14.308Z,0
2016-07-13T01:10:15.001Z,0
2016-07-13T01:11:14.277Z,0
2016-07-13T01:12:14.971Z,0
2016-07-13T01:13:13.599Z,0
2016-07-13T01:14:14.947Z,0
2016-07-13T01:15:14.224Z,0
2016-07-13T01:16:14.939Z,0
2016-07-13T01:17:14.217Z,0
2016-07-13T01:18:14.190Z,0
2016-07-13T01:19:14.892Z,0
2016-07-13T01:20:14.867Z,0
2016-07-13T01:21:14.901Z,0
2016-07-13T01:22:14.139Z,0
2016-07-13T01:23:14.891Z,0
2016-07-13T01:24:14.814Z,0
2016-07-13T01:25:14.811Z,0
2016-07-13T01:26:14.080Z,0
2016-07-13T01:27:14.070Z,0
2016-07-13T01:28:14.068Z,0
2016-07-13T01:29:14.841Z,0
2016-07-13T01:30:14.023Z,0
2016-07-13T01:31:14.767Z,0
2016-07-13T01:32:14.016Z,0
2016-07-13T01:33:14.056Z,0
2016-07-13T01:34:14.681Z,0
2016-07-13T01:35:13.240Z,0
2016-07-13T01:36:13.942Z,0
2016-07-13T01:37:14.720Z,0
2016-07-13T01:38:13.925Z,0
2016-07-13T01:39:14.720Z,0
2016-07-13T01:40:13.880Z,0
2016-07-13T01:41:14.640Z,0
2016-07-13T01:42:13.147Z,0
2016-07-13T01:43:14.610Z,0
2016-07-13T01:44:13.831Z,0
2016-07-13T01:45:14.550Z,0
2016-07-13T01:46:14.521Z,0
2016-07-13T01:47:14.511Z,0
2016-07-13T01:48:14.491Z,0
2016-07-13T01:49:14.497Z,0
2016-07-13T01:50:14.469Z,0
2016-07-13T01:51:14.467Z,0
2016-07-13T01:52:14.450Z,0
2016-07-13T01:53:14.430Z,0
2016-07-13T01:54:14.419Z,0
2016-07-13T01:55:13.709Z,0
2016-07-13T01:56:13.669Z,0
2016-07-13T01:57:14.390Z,0
2016-07-13T01:58:14.344Z,0
2016-07-13T01:59:14.345Z,0
2016-07-13T02:00:13.619Z,0
2016-07-13T02:01:13.721Z,0
2016-07-13T02:02:14.311Z,0
2016-07-13T02:03:13.578Z,0
2016-07-13T02:04:14.281Z,0
2016-07-13T02:05:13.546Z,0
2016-07-13T02:06:14.248Z,0
2016-07-13T02:07:14.256Z,0
2016-07-13T02:08:14.232Z,0
2016-07-13T02:09:13.511Z,0
2016-07-13T02:10:13.490Z,0
2016-07-13T02:11:14.195Z,0
2016-07-13T02:12:14.180Z,0
2016-07-13T02:13:14.177Z,0
2016-07-13T02:14:14.128Z,0
2016-07-13T02:15:14.140Z,0
2016-07-13T02:16:14.103Z,0
2016-07-13T02:17:14.104Z,0
2016-07-13T02:18:13.379Z,0
2016-07-13T02:19:14.122Z,0
2016-07-13T02:20:14.081Z,0
2016-07-13T02:21:14.028Z,0
2016-07-13T02:22:14.051Z,0
2016-07-13T02:23:13.298Z,0
2016-07-13T02:24:14.027Z,0
2016-07-13T02:25:13.277Z,0
2016-07-13T02:26:13.969Z,0
2016-07-13T02:27:13.232Z,0
2016-07-13T02:28:13.939Z,0
2016-07-13T02:29:13.932Z,0
2016-07-13T02:30:13.916Z,0
2016-07-13T02:31:13.905Z,0
2016-07-13T02:32:13.202Z,0
2016-07-13T02:33:13.877Z,0
2016-07-13T02:34:13.852Z,0
2016-07-13T02:35:13.872Z,0
2016-07-13T02:36:13.138Z,0
2016-07-13T02:37:13.830Z,0
2016-07-13T02:38:13.809Z,0
2016-07-13T02:39:13.798Z,0
2016-07-13T02:40:13.071Z,0
2016-07-13T02:41:13.754Z,0
2016-07-13T02:42:13.762Z,0
2016-07-13T02:43:13.765Z,0
2016-07-13T02:44:13.726Z,0
2016-07-13T02:45:13.700Z,0
2016-07-13T02:46:13.760Z,0
2016-07-13T02:47:13.668Z,0
2016-07-13T02:48:13.744Z,0
2016-07-13T02:49:13.659Z,0
2016-07-13T02:50:13.651Z,0
2016-07-13T02:51:13.601Z,4
2016-07-13T02:52:13.598Z,4
2016-07-13T02:53:12.862Z,0
2016-07-13T02:54:12.932Z,0
2016-07-13T02:55:12.856Z,4
2016-07-13T02:56:13.551Z,4
2016-07-13T02:57:12.811Z,4
2016-07-13T02:58:12.800Z,4
2016-07-13T02:59:13.498Z,4
2016-07-13T03:00:13.492Z,8
2016-07-13T03:01:13.474Z,4
2016-07-13T03:02:13.511Z,8
2016-07-13T03:03:13.445Z,4
2016-07-13T03:04:13.482Z,8
2016-07-13T03:05:13.402Z,8
2016-07-13T03:06:13.410Z,8
2016-07-13T03:07:13.381Z,12
2016-07-13T03:08:13.380Z,12
2016-07-13T03:09:13.338Z,12
2016-07-13T03:10:13.381Z,16
2016-07-13T03:11:12.680Z,16
2016-07-13T03:12:11.891Z,16
2016-07-13T03:13:13.310Z,16
2016-07-13T03:14:12.580Z,20
2016-07-13T03:15:13.285Z,24
2016-07-13T03:16:13.245Z,20
2016-07-13T03:17:12.540Z,24
2016-07-13T03:18:12.557Z,28
2016-07-13T03:19:12.490Z,32
2016-07-13T03:20:13.234Z,36
2016-07-13T03:21:13.181Z,40
2016-07-13T03:22:13.161Z,40
2016-07-13T03:23:13.160Z,48
2016-07-13T03:24:13.146Z,52
2016-07-13T03:25:13.139Z,52
2016-07-13T03:26:13.119Z,56
2016-07-13T03:27:13.097Z,60
2016-07-13T03:28:13.088Z,68
2016-07-13T03:29:13.072Z,72
2016-07-13T03:30:12.350Z,80
2016-07-13T03:31:13.047Z,88
2016-07-13T03:32:11.614Z,88
2016-07-13T03:33:12.300Z,88
2016-07-13T03:34:13.012Z,96
2016-07-13T03:35:12.260Z,100
2016-07-13T03:36:12.967Z,92
2016-07-13T03:37:12.241Z,104
2016-07-13T03:38:12.938Z,104
2016-07-13T03:39:12.921Z,124
2016-07-13T03:40:12.944Z,120
2016-07-13T03:41:12.909Z,128
2016-07-13T03:42:12.891Z,144
2016-07-13T03:43:12.228Z,144
2016-07-13T03:44:12.137Z,148
2016-07-13T03:45:11.418Z,160
2016-07-13T03:46:12.831Z,168
2016-07-13T03:47:12.842Z,180
2016-07-13T03:48:12.792Z,184
2016-07-13T03:49:12.080Z,184
2016-07-13T03:50:12.769Z,208
2016-07-13T03:51:12.061Z,228
2016-07-13T03:52:12.741Z,256
2016-07-13T03:53:12.721Z,260
2016-07-13T03:54:12.721Z,280
2016-07-13T03:55:12.031Z,288
2016-07-13T03:56:12.675Z,288
2016-07-13T03:57:11.946Z,292
2016-07-13T03:58:12.652Z,320
2016-07-13T03:59:11.935Z,348
2016-07-13T04:00:12.631Z,368
2016-07-13T04:01:11.931Z,364
2016-07-13T04:02:11.884Z,392
2016-07-13T04:03:11.159Z,412
2016-07-13T04:04:12.582Z,416
2016-07-13T04:05:11.121Z,432
2016-07-13T04:06:12.541Z,468
2016-07-13T04:07:12.540Z,508
2016-07-13T04:08:12.521Z,524
2016-07-13T04:09:12.501Z,540
2016-07-13T04:10:12.495Z,592
2016-07-13T04:11:13.081Z,612
2016-07-13T04:12:12.481Z,632
2016-07-13T04:13:12.437Z,632
2016-07-13T04:14:12.420Z,636
2016-07-13T04:15:12.428Z,600
2016-07-13T04:16:11.665Z,612
2016-07-13T04:17:10.993Z,704
2016-07-13T04:18:12.368Z,764
2016-07-13T04:19:12.441Z,708
2016-07-13T04:20:12.336Z,720
2016-07-13T04:21:12.337Z,732
2016-07-13T04:22:10.170Z,672
2016-07-13T04:23:11.657Z,624
2016-07-13T04:24:11.582Z,660
2016-07-13T04:25:12.371Z,720
2016-07-13T04:26:12.258Z,632
2016-07-13T04:27:12.391Z,628
2016-07-13T04:28:12.258Z,612
2016-07-13T04:29:11.508Z,632
2016-07-13T04:30:12.199Z,592
2016-07-13T04:31:12.272Z,584
2016-07-13T04:32:11.458Z,644
2016-07-13T04:33:12.137Z,764
2016-07-13T04:34:12.138Z,744
2016-07-13T04:35:12.159Z,704
2016-07-13T04:36:12.111Z,728
2016-07-13T04:37:12.096Z,756
2016-07-13T04:38:12.087Z,672
2016-07-13T04:39:11.368Z,836
2016-07-13T04:40:11.351Z,796
2016-07-13T04:41:11.410Z,696
2016-07-13T04:42:12.021Z,808
2016-07-13T04:43:12.080Z,868
2016-07-13T04:44:11.279Z,1008
2016-07-13T04:45:12.031Z,1240
2016-07-13T04:46:11.257Z,1176
2016-07-13T04:47:11.290Z,1208
2016-07-13T04:48:11.226Z,1052
2016-07-13T04:49:11.923Z,956
2016-07-13T04:50:11.203Z,904
2016-07-13T04:51:11.899Z,880
2016-07-13T04:52:11.159Z,876
2016-07-13T04:53:11.876Z,860
2016-07-13T04:54:11.867Z,856
2016-07-13T04:55:11.141Z,872
2016-07-13T04:56:11.831Z,932
2016-07-13T04:57:11.829Z,892
2016-07-13T04:58:10.372Z,948
2016-07-13T04:59:11.830Z,952
2016-07-13T05:00:11.794Z,1048
2016-07-13T05:01:10.327Z,1340
2016-07-13T05:02:11.037Z,1396
2016-07-13T05:03:11.729Z,1392
2016-07-13T05:04:11.007Z,1504
2016-07-13T05:05:10.333Z,1556
2016-07-13T05:06:11.677Z,1624
2016-07-13T05:07:10.968Z,1656
2016-07-13T05:08:11.671Z,1572
2016-07-13T05:09:10.929Z,1480
2016-07-13T05:10:11.638Z,1360
2016-07-13T05:11:10.897Z,1320
2016-07-13T05:12:10.879Z,1308
2016-07-13T05:13:10.154Z,1200
2016-07-13T05:14:11.585Z,1096
2016-07-13T05:15:10.851Z,1112
2016-07-13T05:16:11.575Z,1212
2016-07-13T05:17:10.840Z,1192
2016-07-13T05:18:11.530Z,1232
2016-07-13T05:19:11.501Z,1388
2016-07-13T05:20:10.780Z,1424
2016-07-13T05:21:11.491Z,1548
2016-07-13T05:22:10.758Z,1660
2016-07-13T05:23:11.463Z,1648
2016-07-13T05:24:11.441Z,1784
2016-07-13T05:25:11.495Z,2012
2016-07-13T05:26:11.423Z,2108
2016-07-13T05:27:11.388Z,2160
2016-07-13T05:28:11.392Z,2336
2016-07-13T05:29:11.389Z,2572
2016-07-13T05:30:09.932Z,2760
2016-07-13T05:31:09.265Z,2924
2016-07-13T05:32:11.328Z,3008
2016-07-13T05:33:11.311Z,2968
2016-07-13T05:34:11.282Z,2880
2016-07-13T05:35:11.280Z,2540
2016-07-13T05:36:11.270Z,2168
2016-07-13T05:37:11.280Z,1888
2016-07-13T05:38:09.811Z,1724
2016-07-13T05:39:11.218Z,1716
2016-07-13T05:40:10.498Z,1772
2016-07-13T05:41:10.471Z,1848
2016-07-13T05:42:10.520Z,1864
2016-07-13T05:43:10.468Z,1944
2016-07-13T05:44:11.147Z,2028
2016-07-13T05:45:11.148Z,2176
2016-07-13T05:46:11.149Z,2212
2016-07-13T05:47:11.116Z,2492
2016-07-13T05:48:11.112Z,3140
2016-07-13T05:49:10.356Z,3320
2016-07-13T05:50:10.365Z,3572
2016-07-13T05:51:10.349Z,3460
2016-07-13T05:52:09.611Z,3416
2016-07-13T05:53:10.317Z,3732
2016-07-13T05:54:10.300Z,4164
2016-07-13T05:55:10.288Z,4164
2016-07-13T05:56:10.348Z,4436
2016-07-13T05:57:10.277Z,4672
2016-07-13T05:58:10.997Z,4700
2016-07-13T05:59:10.948Z,4740
2016-07-13T06:00:10.949Z,4904
2016-07-13T06:01:10.919Z,4976
2016-07-13T06:02:10.188Z,4780
2016-07-13T06:03:10.174Z,4092
2016-07-13T06:04:10.890Z,3796
2016-07-13T06:05:10.858Z,3700
2016-07-13T06:06:10.146Z,3848
2016-07-13T06:07:10.838Z,3652
2016-07-13T06:08:10.826Z,3744
2016-07-13T06:09:10.810Z,4084
2016-07-13T06:10:10.820Z,4800
2016-07-13T06:11:09.360Z,5004
2016-07-13T06:12:10.817Z,4696
2016-07-13T06:13:10.045Z,4288
2016-07-13T06:14:10.813Z,4164
2016-07-13T06:15:09.312Z,4272
2016-07-13T06:16:10.726Z,4756
2016-07-13T06:17:10.710Z,5448
2016-07-13T06:18:10.725Z,5696
2016-07-13T06:19:10.677Z,5708
2016-07-13T06:20:10.678Z,5708
2016-07-13T06:21:10.680Z,5632
2016-07-13T06:22:09.993Z,5624
2016-07-13T06:23:10.638Z,5744
2016-07-13T06:24:09.199Z,5872
2016-07-13T06:25:09.910Z,5908
2016-07-13T06:26:09.891Z,5952
2016-07-13T06:27:09.877Z,6028
2016-07-13T06:28:10.610Z,5984
2016-07-13T06:29:10.542Z,6076
2016-07-13T06:30:09.839Z,5952
2016-07-13T06:31:10.540Z,6016
2016-07-13T06:32:09.793Z,6372
2016-07-13T06:33:09.791Z,6640
2016-07-13T06:34:10.488Z,6724
2016-07-13T06:35:10.461Z,6468
2016-07-13T06:36:10.464Z,6500
2016-07-13T06:37:09.758Z,6764
2016-07-13T06:38:10.443Z,6716
2016-07-13T06:39:09.714Z,6820
2016-07-13T06:40:09.703Z,6924
2016-07-13T06:41:09.694Z,6680
2016-07-13T06:42:09.673Z,7064
2016-07-13T06:43:10.372Z,7224
2016-07-13T06:44:10.354Z,7308
2016-07-13T06:45:10.366Z,7456
2016-07-13T06:46:10.339Z,7520
2016-07-13T06:47:10.331Z,7516
2016-07-13T06:48:10.301Z,7512
2016-07-13T06:49:10.310Z,7448
2016-07-13T06:50:10.279Z,7352
2016-07-13T06:51:08.896Z,7324
2016-07-13T06:52:10.259Z,7328
2016-07-13T06:53:08.818Z,7320
2016-07-13T06:54:10.219Z,7292
2016-07-13T06:55:09.543Z,7260
2016-07-13T06:56:08.772Z,7208
2016-07-13T06:57:10.184Z,7100
2016-07-13T06:58:09.482Z,6912
2016-07-13T06:59:09.644Z,6632
2016-07-13T07:00:08.753Z,6324
2016-07-13T07:01:09.445Z,6064
2016-07-13T07:02:09.421Z,5984
2016-07-13T07:03:09.469Z,5916
2016-07-13T07:04:10.114Z,5952
2016-07-13T07:05:10.170Z,6136
2016-07-13T07:06:10.081Z,6460
2016-07-13T07:07:09.424Z,6632
2016-07-13T07:08:09.355Z,6872
2016-07-13T07:09:09.414Z,7068
2016-07-13T07:10:09.328Z,7008
2016-07-13T07:11:10.046Z,6956
2016-07-13T07:12:09.304Z,7156
2016-07-13T07:13:10.019Z,6836
2016-07-13T07:14:09.263Z,6996
2016-07-13T07:15:09.992Z,7064
2016-07-13T07:16:09.985Z,7220
2016-07-13T07:17:09.240Z,7480
2016-07-13T07:18:08.497Z,7704
2016-07-13T07:19:09.965Z,7876
2016-07-13T07:20:09.219Z,7916
2016-07-13T07:21:09.957Z,7992
2016-07-13T07:22:09.890Z,8024
2016-07-13T07:23:08.457Z,8112
2016-07-13T07:24:09.148Z,8260
2016-07-13T07:25:09.865Z,8340
2016-07-13T07:26:09.127Z,8516
2016-07-13T07:27:09.834Z,8560
2016-07-13T07:28:09.178Z,8604
2016-07-13T07:29:09.114Z,8664
2016-07-13T07:30:09.082Z,8716
2016-07-13T07:31:09.790Z,8812
2016-07-13T07:32:09.791Z,8936
2016-07-13T07:33:09.779Z,8916
2016-07-13T07:34:09.760Z,8864
2016-07-13T07:35:08.299Z,8732
2016-07-13T07:36:09.730Z,8824
2016-07-13T07:37:09.002Z,8848
2016-07-13T07:38:09.712Z,8848
2016-07-13T07:39:09.757Z,8860
2016-07-13T07:40:09.689Z,8952
2016-07-13T07:41:09.672Z,8984
2016-07-13T07:42:09.653Z,9056
2016-07-13T07:43:08.961Z,9048
2016-07-13T07:44:09.640Z,9044
2016-07-13T07:45:09.723Z,8980
2016-07-13T07:46:09.635Z,8820
2016-07-13T07:47:09.681Z,8600
2016-07-13T07:48:08.904Z,8504
2016-07-13T07:49:08.880Z,8528
2016-07-13T07:50:09.583Z,8596
2016-07-13T07:51:08.847Z,8684
2016-07-13T07:52:09.549Z,8616
2016-07-13T07:53:09.590Z,8540
2016-07-13T07:54:08.153Z,8760
2016-07-13T07:55:09.540Z,9048
2016-07-13T07:56:09.510Z,9132
2016-07-13T07:57:08.778Z,8988
2016-07-13T07:58:09.489Z,9160
2016-07-13T07:59:08.760Z,10564
2016-07-13T08:00:08.752Z,11032
2016-07-13T08:01:09.467Z,10720
2016-07-13T08:02:08.029Z,10484
2016-07-13T08:03:09.432Z,10340
2016-07-13T08:04:08.709Z,9072
2016-07-13T08:05:08.697Z,9440
2016-07-13T08:06:08.717Z,10072
2016-07-13T08:07:08.670Z,11888
2016-07-13T08:08:08.684Z,11832
2016-07-13T08:09:08.659Z,2412
2016-07-13T08:10:09.384Z,1884
2016-07-13T08:11:08.640Z,2660
2016-07-13T08:12:09.359Z,1760
2016-07-13T08:13:09.330Z,2592
2016-07-13T08:14:09.334Z,1792
2016-07-13T08:15:08.609Z,1976
2016-07-13T08:16:08.597Z,2208
2016-07-13T08:17:09.303Z,2808
2016-07-13T08:18:09.278Z,2740
2016-07-13T08:19:09.267Z,2260
2016-07-13T08:20:08.588Z,1932
2016-07-13T08:21:08.547Z,2656
2016-07-13T08:22:08.525Z,2964
2016-07-13T08:23:09.231Z,2972
2016-07-13T08:24:07.799Z,1728
2016-07-13T08:25:08.492Z,1824
2016-07-13T08:26:08.500Z,3044
2016-07-13T08:27:09.190Z,3008
2016-07-13T08:28:08.489Z,2264
2016-07-13T08:29:08.460Z,1556
2016-07-13T08:30:08.438Z,1948
2016-07-13T08:31:08.441Z,1868
2016-07-13T08:32:09.148Z,2324
2016-07-13T08:33:09.148Z,1956
2016-07-13T08:34:08.408Z,2752
2016-07-13T08:35:09.112Z,2776
2016-07-13T08:36:07.667Z,2848
2016-07-13T08:37:08.360Z,3044
2016-07-13T08:38:08.391Z,2968
2016-07-13T08:39:09.079Z,2928
2016-07-13T08:40:09.061Z,2696
2016-07-13T08:41:09.051Z,2692
2016-07-13T08:42:09.025Z,2672
2016-07-13T08:43:07.680Z,1684
2016-07-13T08:44:09.019Z,1900
2016-07-13T08:45:09.008Z,1920
2016-07-13T08:46:08.279Z,2020
2016-07-13T08:47:08.266Z,2820
2016-07-13T08:48:08.979Z,2884
2016-07-13T08:49:08.248Z,2992
2016-07-13T08:50:08.967Z,2880
2016-07-13T08:51:08.947Z,2744
2016-07-13T08:52:08.222Z,2808
2016-07-13T08:53:08.929Z,3136
2016-07-13T08:54:08.911Z,2972
2016-07-13T08:55:08.230Z,2060
2016-07-13T08:56:07.461Z,2836
2016-07-13T08:57:08.907Z,3372
2016-07-13T08:58:08.868Z,3356
2016-07-13T08:59:08.859Z,3228
2016-07-13T09:00:08.141Z,3196
2016-07-13T09:01:08.848Z,3292
2016-07-13T09:02:08.108Z,3268
2016-07-13T09:03:08.830Z,3452
2016-07-13T09:04:07.390Z,3364
2016-07-13T09:05:08.822Z,3432
2016-07-13T09:06:08.812Z,3416
2016-07-13T09:07:08.799Z,3380
2016-07-13T09:08:08.779Z,3252
2016-07-13T09:09:08.056Z,3396
2016-07-13T09:10:07.327Z,3472
2016-07-13T09:11:08.781Z,3496
2016-07-13T09:12:08.018Z,3700
2016-07-13T09:13:08.779Z,3572
2016-07-13T09:14:08.739Z,3548
2016-07-13T09:15:08.723Z,3692
2016-07-13T09:16:08.707Z,3884
2016-07-13T09:17:07.983Z,3668
2016-07-13T09:18:08.684Z,3612
2016-07-13T09:19:08.758Z,3720
2016-07-13T09:20:07.965Z,3852
2016-07-13T09:21:07.938Z,3652
2016-07-13T09:22:07.930Z,2616
2016-07-13T09:23:07.928Z,2788
2016-07-13T09:24:07.194Z,2124
2016-07-13T09:25:07.911Z,2172
2016-07-13T09:26:07.901Z,3604
2016-07-13T09:27:08.670Z,2676
2016-07-13T09:28:07.890Z,2096
2016-07-13T09:29:07.149Z,3656
2016-07-13T09:30:08.575Z,3876
2016-07-13T09:31:08.569Z,3948
2016-07-13T09:32:07.855Z,3828
2016-07-13T09:33:08.547Z,3904
2016-07-13T09:34:08.554Z,4040
2016-07-13T09:35:08.538Z,3932
2016-07-13T09:36:08.516Z,3996
2016-07-13T09:37:07.798Z,3908
2016-07-13T09:38:07.130Z,3304
2016-07-13T09:39:07.780Z,2116
2016-07-13T09:40:08.487Z,2148
2016-07-13T09:41:07.045Z,2324
2016-07-13T09:42:07.750Z,2384
2016-07-13T09:43:08.453Z,2236
2016-07-13T09:44:08.437Z,2188
2016-07-13T09:45:07.728Z,2176
2016-07-13T09:46:08.430Z,2372
2016-07-13T09:47:07.697Z,3944
2016-07-13T09:48:08.411Z,3816
2016-07-13T09:49:08.387Z,2092
2016-07-13T09:50:07.778Z,3696
2016-07-13T09:51:08.386Z,3532
2016-07-13T09:52:06.998Z,3624
2016-07-13T09:53:07.668Z,3736
2016-07-13T09:54:06.932Z,3904
2016-07-13T09:55:08.371Z,3736
2016-07-13T09:56:07.619Z,3696
2016-07-13T09:57:07.609Z,3608
2016-07-13T09:58:08.307Z,3636
2016-07-13T09:59:08.306Z,3828
2016-07-13T10:00:06.915Z,3896
2016-07-13T10:01:08.296Z,3912
2016-07-13T10:02:06.850Z,3864
2016-07-13T10:03:07.571Z,3980
2016-07-13T10:04:07.550Z,4032
2016-07-13T10:05:07.538Z,4116
2016-07-13T10:06:07.535Z,4156
2016-07-13T10:07:08.232Z,4164
2016-07-13T10:08:07.525Z,4116
2016-07-13T10:09:07.497Z,4132
2016-07-13T10:10:07.517Z,4048
2016-07-13T10:11:08.206Z,2656
2016-07-13T10:12:06.757Z,3200
2016-07-13T10:13:07.487Z,4136
2016-07-13T10:14:07.467Z,2264
2016-07-13T10:15:07.458Z,2820
2016-07-13T10:16:07.465Z,4196
2016-07-13T10:17:07.481Z,3068
2016-07-13T10:18:07.422Z,4048
2016-07-13T10:19:08.116Z,4072
2016-07-13T10:20:08.136Z,4012
2016-07-13T10:21:06.698Z,3924
2016-07-13T10:22:07.380Z,2244
2016-07-13T10:23:08.100Z,2228
2016-07-13T10:24:06.670Z,2184
2016-07-13T10:25:07.432Z,2496
2016-07-13T10:26:08.086Z,4460
2016-07-13T10:27:07.350Z,4348
2016-07-13T10:28:06.620Z,3884
2016-07-13T10:29:08.065Z,4540
2016-07-13T10:30:06.631Z,4352
2016-07-13T10:31:07.359Z,4280
2016-07-13T10:32:06.587Z,3652
2016-07-13T10:33:08.028Z,3632
2016-07-13T10:34:07.297Z,3916
2016-07-13T10:35:07.997Z,4596
2016-07-13T10:36:06.560Z,4512
2016-07-13T10:37:06.578Z,4656
2016-07-13T10:38:07.276Z,4804
2016-07-13T10:39:07.989Z,4680
2016-07-13T10:40:07.245Z,4736
2016-07-13T10:41:07.232Z,4732
2016-07-13T10:42:07.942Z,4680
2016-07-13T10:43:07.948Z,3920
2016-07-13T10:44:07.211Z,4240
2016-07-13T10:45:06.548Z,4332
2016-07-13T10:46:07.937Z,4368
2016-07-13T10:47:07.232Z,4032
2016-07-13T10:48:07.900Z,4524
2016-07-13T10:49:07.890Z,4592
2016-07-13T10:50:07.228Z,2384
2016-07-13T10:51:07.971Z,2396
2016-07-13T10:52:07.152Z,3280
2016-07-13T10:53:07.867Z,4504
2016-07-13T10:54:06.429Z,4620
2016-07-13T10:55:07.179Z,4440
2016-07-13T10:56:07.200Z,4596
2016-07-13T10:57:07.122Z,4548
2016-07-13T10:58:07.112Z,4056
2016-07-13T10:59:07.839Z,3984
2016-07-13T11:00:07.808Z,2528
2016-07-13T11:01:07.870Z,2288
2016-07-13T11:02:07.171Z,3724
2016-07-13T11:03:06.375Z,2380
2016-07-13T11:04:07.121Z,3852
2016-07-13T11:05:06.350Z,4348
2016-07-13T11:06:07.057Z,4416
2016-07-13T11:07:06.335Z,3704
2016-07-13T11:08:07.097Z,3528
2016-07-13T11:09:07.742Z,4416
2016-07-13T11:10:06.298Z,4400
2016-07-13T11:11:07.023Z,4440
2016-07-13T11:12:07.717Z,4660
2016-07-13T11:13:06.274Z,4444
2016-07-13T11:14:07.702Z,4572
2016-07-13T11:15:06.348Z,3460
2016-07-13T11:16:07.739Z,3952
2016-07-13T11:17:06.322Z,2388
2016-07-13T11:18:06.976Z,2360
2016-07-13T11:19:07.670Z,2376
2016-07-13T11:20:07.689Z,2388
2016-07-13T11:21:06.949Z,2492
2016-07-13T11:22:07.658Z,4448
2016-07-13T11:23:07.177Z,3004
2016-07-13T11:24:07.631Z,4020
2016-07-13T11:25:06.897Z,4128
2016-07-13T11:26:06.899Z,3728
2016-07-13T11:27:06.887Z,2216
2016-07-13T11:28:06.908Z,2200
2016-07-13T11:29:07.585Z,2244
2016-07-13T11:30:06.863Z,2352
2016-07-13T11:31:07.071Z,3764
2016-07-13T11:32:06.860Z,4336
2016-07-13T11:33:06.118Z,4524
2016-07-13T11:34:06.399Z,4024
2016-07-13T11:35:06.180Z,3616
2016-07-13T11:36:07.577Z,3528
2016-07-13T11:37:06.810Z,3572
2016-07-13T11:38:06.870Z,4028
2016-07-13T11:39:06.778Z,4388
2016-07-13T11:40:07.500Z,4116
2016-07-13T11:41:06.050Z,3676
2016-07-13T11:42:06.776Z,3404
2016-07-13T11:43:07.518Z,3984
2016-07-13T11:44:05.316Z,3748
2016-07-13T11:45:06.027Z,2624
2016-07-13T11:46:06.027Z,3400
2016-07-13T11:47:06.002Z,3188
2016-07-13T11:48:06.004Z,3388
2016-07-13T11:49:07.430Z,2224
2016-07-13T11:50:06.690Z,2416
2016-07-13T11:51:06.691Z,2172
2016-07-13T11:52:07.397Z,2524
2016-07-13T11:53:06.687Z,2800
2016-07-13T11:54:07.390Z,3176
2016-07-13T11:55:06.660Z,3068
2016-07-13T11:56:07.361Z,3288
2016-07-13T11:57:07.358Z,3148
2016-07-13T11:58:06.628Z,3680
2016-07-13T11:59:07.422Z,4008
2016-07-13T12:00:05.196Z,4196
2016-07-13T12:01:07.421Z,4268
2016-07-13T12:02:07.305Z,4268
2016-07-13T12:03:07.319Z,4276
2016-07-13T12:04:06.609Z,4220
2016-07-13T12:05:07.350Z,4368
2016-07-13T12:06:06.569Z,4500
2016-07-13T12:07:05.908Z,4624
2016-07-13T12:08:06.559Z,4648
2016-07-13T12:09:07.270Z,2952
2016-07-13T12:10:07.251Z,4340
2016-07-13T12:11:06.536Z,4472
2016-07-13T12:12:06.528Z,5084
2016-07-13T12:13:06.520Z,4904
2016-07-13T12:14:07.217Z,3872
2016-07-13T12:15:05.798Z,4612
2016-07-13T12:16:07.219Z,4344
2016-07-13T12:17:06.473Z,4408
2016-07-13T12:18:07.187Z,2044
2016-07-13T12:19:06.538Z,1900
2016-07-13T12:20:06.462Z,1880
2016-07-13T12:21:07.168Z,1876
2016-07-13T12:22:07.161Z,1928
2016-07-13T12:23:06.441Z,2196
2016-07-13T12:24:07.146Z,2300
2016-07-13T12:25:07.161Z,2840
2016-07-13T12:26:07.161Z,4252
2016-07-13T12:27:05.687Z,4044
2016-07-13T12:28:06.417Z,3804
2016-07-13T12:29:07.121Z,2744
2016-07-13T12:30:07.098Z,2536
2016-07-13T12:31:06.382Z,2536
2016-07-13T12:32:06.370Z,2580
2016-07-13T12:33:06.361Z,2512
2016-07-13T12:34:07.071Z,2364
2016-07-13T12:35:05.627Z,2004
2016-07-13T12:36:07.047Z,1844
2016-07-13T12:37:07.058Z,1736
2016-07-13T12:38:06.311Z,1600
2016-07-13T12:39:07.027Z,1492
2016-07-13T12:40:07.037Z,1364
2016-07-13T12:41:04.858Z,1256
2016-07-13T12:42:06.290Z,1140
2016-07-13T12:43:06.270Z,1088
2016-07-13T12:44:06.979Z,1076
2016-07-13T12:45:06.258Z,1088
2016-07-13T12:46:06.323Z,1152
2016-07-13T12:47:06.955Z,1268
2016-07-13T12:48:06.949Z,1384
2016-07-13T12:49:06.286Z,1524
2016-07-13T12:50:06.963Z,1692
2016-07-13T12:51:06.198Z,1880
2016-07-13T12:52:06.208Z,1916
2016-07-13T12:53:06.901Z,2188
2016-07-13T12:54:06.207Z,2364
2016-07-13T12:55:05.448Z,2292
2016-07-13T12:56:06.878Z,2144
2016-07-13T12:57:06.150Z,2080
2016-07-13T12:58:06.905Z,2092
2016-07-13T12:59:05.400Z,1996
2016-07-13T13:00:06.848Z,1860
2016-07-13T13:01:06.828Z,1800
2016-07-13T13:02:06.109Z,1676
2016-07-13T13:03:06.091Z,1536
2016-07-13T13:04:06.809Z,1444
2016-07-13T13:05:06.117Z,1392
2016-07-13T13:06:06.069Z,1360
2016-07-13T13:07:06.122Z,1416
2016-07-13T13:08:06.759Z,1472
2016-07-13T13:09:06.769Z,1552
2016-07-13T13:10:06.779Z,1596
2016-07-13T13:11:06.020Z,1672
2016-07-13T13:12:06.718Z,1756
2016-07-13T13:13:05.990Z,1880
2016-07-13T13:14:06.014Z,2092
2016-07-13T13:15:05.991Z,2140
2016-07-13T13:16:05.959Z,2212
2016-07-13T13:17:06.679Z,2128
2016-07-13T13:18:05.959Z,2020
2016-07-13T13:19:06.653Z,2008
2016-07-13T13:20:06.648Z,2032
2016-07-13T13:21:06.628Z,2072
2016-07-13T13:22:06.618Z,2316
2016-07-13T13:23:06.649Z,2596
2016-07-13T13:24:05.185Z,2152
2016-07-13T13:25:06.600Z,2544
2016-07-13T13:26:06.602Z,2408
2016-07-13T13:27:05.879Z,2020
2016-07-13T13:28:05.147Z,1960
2016-07-13T13:29:05.858Z,1808
2016-07-13T13:30:05.845Z,1692
2016-07-13T13:31:06.580Z,1588
2016-07-13T13:32:06.551Z,1492
2016-07-13T13:33:06.527Z,1364
2016-07-13T13:34:05.800Z,1284
2016-07-13T13:35:06.557Z,1200
2016-07-13T13:36:06.485Z,1096
2016-07-13T13:37:06.562Z,4860
2016-07-13T13:38:05.759Z,4676
2016-07-13T13:39:05.759Z,4380
2016-07-13T13:40:05.013Z,4084
2016-07-13T13:41:05.719Z,3768